Terminal Aerodrome Forecast
Issued by NWS Cleveland, OH

Home | Current Version | Previous Version | Text Only | Print | Product List | Glossary On
Versions: 1 2 3 4 5 6 7 8 9 10 11 12 13 14 15 16
000
FTUS41 KCLE 071134
TAFCAK
TAF
KCAK 071134Z 0712/0812 19010KT 6SM BR BKN035 OVC250
      TEMPO 0713/0716 BKN030 BKN250
     FM071600 21010G20KT P6SM BKN035 OVC200
     FM071800 22010G20KT P6SM VCSH BKN035 OVC060
     FM072100 23015KT P6SM -SHRA VCTS OVC035CB
      TEMPO 0721/0801 3SM -TSRA BR BKN015 OVC020CB
     FM080200 27010KT 3SM -SHRA BR OVC007
     FM080500 34008KT 3SM -SHRA BR OVC007=

USA.gov is the U.S. government's official web portal to all federal, state and local government web resources and services.